sensor_id;sensor_type;location;lat;lon;timestamp;P1;durP1;ratioP1;P2;durP2;ratioP2
49177;SDS011;35016;55.674;37.468;2023-04-25T00:00:15;12.07;;;6.18;;
49177;SDS011;35016;55.674;37.468;2023-04-25T00:02:42;11.27;;;5.88;;
49177;SDS011;35016;55.674;37.468;2023-04-25T00:05:09;11.57;;;5.07;;
49177;SDS011;35016;55.674;37.468;2023-04-25T00:07:37;11.18;;;6.13;;
49177;SDS011;35016;55.674;37.468;2023-04-25T00:10:05;11.50;;;4.82;;
49177;SDS011;35016;55.674;37.468;2023-04-25T00:12:33;9.95;;;4.93;;
49177;SDS011;35016;55.674;37.468;2023-04-25T00:15:00;9.43;;;4.68;;
49177;SDS011;35016;55.674;37.468;2023-04-25T00:17:28;10.38;;;6.25;;
49177;SDS011;35016;55.674;37.468;2023-04-25T00:19:56;12.20;;;5.28;;
49177;SDS011;35016;55.674;37.468;2023-04-25T00:22:24;11.80;;;5.93;;
49177;SDS011;35016;55.674;37.468;2023-04-25T00:24:51;10.32;;;5.32;;
49177;SDS011;35016;55.674;37.468;2023-04-25T00:27:19;10.32;;;4.93;;
49177;SDS011;35016;55.674;37.468;2023-04-25T00:29:47;10.73;;;5.45;;
49177;SDS011;35016;55.674;37.468;2023-04-25T00:32:14;9.23;;;4.35;;
49177;SDS011;35016;55.674;37.468;2023-04-25T00:34:41;10.55;;;4.82;;
49177;SDS011;35016;55.674;37.468;2023-04-25T00:37:08;10.77;;;3.80;;
49177;SDS011;35016;55.674;37.468;2023-04-25T00:39:35;13.60;;;4.80;;
49177;SDS011;35016;55.674;37.468;2023-04-25T00:42:02;9.00;;;4.47;;
49177;SDS011;35016;55.674;37.468;2023-04-25T00:44:30;9.18;;;4.55;;
49177;SDS011;35016;55.674;37.468;2023-04-25T00:46:59;8.77;;;4.75;;
49177;SDS011;35016;55.674;37.468;2023-04-25T00:49:28;9.05;;;4.20;;
49177;SDS011;35016;55.674;37.468;2023-04-25T00:51:56;9.60;;;5.05;;
49177;SDS011;35016;55.674;37.468;2023-04-25T00:54:23;10.40;;;5.22;;
49177;SDS011;35016;55.674;37.468;2023-04-25T00:56:52;8.65;;;4.55;;
49177;SDS011;35016;55.674;37.468;2023-04-25T00:59:19;15.18;;;5.45;;
49177;SDS011;35016;55.674;37.468;2023-04-25T01:01:47;10.20;;;4.70;;
49177;SDS011;35016;55.674;37.468;2023-04-25T01:04:14;11.07;;;5.38;;
49177;SDS011;35016;55.674;37.468;2023-04-25T01:06:41;13.10;;;5.40;;
49177;SDS011;35016;55.674;37.468;2023-04-25T01:09:09;9.15;;;4.50;;
49177;SDS011;35016;55.674;37.468;2023-04-25T01:11:36;11.30;;;5.60;;
49177;SDS011;35016;55.674;37.468;2023-04-25T01:14:03;10.35;;;5.28;;
49177;SDS011;35016;55.674;37.468;2023-04-25T01:16:30;9.48;;;5.07;;
49177;SDS011;35016;55.674;37.468;2023-04-25T01:18:58;10.02;;;5.15;;
49177;SDS011;35016;55.674;37.468;2023-04-25T01:21:26;12.70;;;4.90;;
49177;SDS011;35016;55.674;37.468;2023-04-25T01:23:54;10.05;;;4.90;;
49177;SDS011;35016;55.674;37.468;2023-04-25T01:26:22;9.23;;;4.85;;
49177;SDS011;35016;55.674;37.468;2023-04-25T01:28:50;9.80;;;5.32;;
49177;SDS011;35016;55.674;37.468;2023-04-25T01:31:18;10.68;;;5.32;;
49177;SDS011;35016;55.674;37.468;2023-04-25T01:33:46;11.65;;;4.97;;
49177;SDS011;35016;55.674;37.468;2023-04-25T01:36:15;13.02;;;5.57;;
49177;SDS011;35016;55.674;37.468;2023-04-25T01:38:42;10.52;;;4.65;;
49177;SDS011;35016;55.674;37.468;2023-04-25T01:41:10;10.13;;;5.65;;
49177;SDS011;35016;55.674;37.468;2023-04-25T01:43:37;9.35;;;5.18;;
49177;SDS011;35016;55.674;37.468;2023-04-25T01:46:05;11.82;;;5.13;;
49177;SDS011;35016;55.674;37.468;2023-04-25T01:48:32;9.32;;;5.07;;
49177;SDS011;35016;55.674;37.468;2023-04-25T01:50:59;14.00;;;5.90;;
49177;SDS011;35016;55.674;37.468;2023-04-25T01:53:28;12.98;;;6.35;;
49177;SDS011;35016;55.674;37.468;2023-04-25T01:55:55;9.60;;;4.80;;
49177;SDS011;35016;55.674;37.468;2023-04-25T01:58:24;8.98;;;4.63;;
49177;SDS011;35016;55.674;37.468;2023-04-25T02:01:27;11.07;;;4.78;;
49177;SDS011;35016;55.674;37.468;2023-04-25T02:04:10;10.15;;;5.05;;
49177;SDS011;35016;55.674;37.468;2023-04-25T02:06:39;10.15;;;6.07;;
49177;SDS011;35016;55.674;37.468;2023-04-25T02:09:07;13.80;;;5.75;;
49177;SDS011;35016;55.674;37.468;2023-04-25T02:11:38;9.68;;;4.93;;
49177;SDS011;35016;55.674;37.468;2023-04-25T02:14:24;9.07;;;4.78;;
49177;SDS011;35016;55.674;37.468;2023-04-25T02:17:18;12.93;;;5.53;;
49177;SDS011;35016;55.674;37.468;2023-04-25T02:19:45;10.55;;;4.75;;
49177;SDS011;35016;55.674;37.468;2023-04-25T02:22:12;11.02;;;5.32;;
49177;SDS011;35016;55.674;37.468;2023-04-25T02:24:39;9.73;;;5.20;;
49177;SDS011;35016;55.674;37.468;2023-04-25T02:27:06;10.52;;;5.43;;
49177;SDS011;35016;55.674;37.468;2023-04-25T02:29:34;10.23;;;5.05;;
49177;SDS011;35016;55.674;37.468;2023-04-25T02:32:01;11.73;;;5.65;;
49177;SDS011;35016;55.674;37.468;2023-04-25T02:34:29;12.00;;;5.95;;
49177;SDS011;35016;55.674;37.468;2023-04-25T02:36:59;11.13;;;5.15;;
49177;SDS011;35016;55.674;37.468;2023-04-25T02:39:26;11.82;;;6.15;;
49177;SDS011;35016;55.674;37.468;2023-04-25T02:41:54;11.75;;;6.22;;
49177;SDS011;35016;55.674;37.468;2023-04-25T02:44:22;11.57;;;5.88;;
49177;SDS011;35016;55.674;37.468;2023-04-25T02:46:49;12.85;;;6.00;;
49177;SDS011;35016;55.674;37.468;2023-04-25T02:49:16;11.48;;;5.78;;
49177;SDS011;35016;55.674;37.468;2023-04-25T02:51:43;11.65;;;5.15;;
49177;SDS011;35016;55.674;37.468;2023-04-25T02:54:10;12.32;;;5.55;;
49177;SDS011;35016;55.674;37.468;2023-04-25T02:56:41;9.73;;;6.28;;
49177;SDS011;35016;55.674;37.468;2023-04-25T02:59:13;13.10;;;4.65;;
49177;SDS011;35016;55.674;37.468;2023-04-25T03:01:40;12.48;;;4.80;;
49177;SDS011;35016;55.674;37.468;2023-04-25T03:04:07;10.45;;;5.60;;
49177;SDS011;35016;55.674;37.468;2023-04-25T03:06:34;10.38;;;5.57;;
49177;SDS011;35016;55.674;37.468;2023-04-25T03:09:01;10.93;;;5.30;;
49177;SDS011;35016;55.674;37.468;2023-04-25T03:11:29;11.38;;;5.70;;
49177;SDS011;35016;55.674;37.468;2023-04-25T03:13:56;12.30;;;5.63;;
49177;SDS011;35016;55.674;37.468;2023-04-25T03:16:23;12.13;;;6.63;;
49177;SDS011;35016;55.674;37.468;2023-04-25T03:18:50;13.35;;;6.30;;
49177;SDS011;35016;55.674;37.468;2023-04-25T03:21:17;12.10;;;6.80;;
49177;SDS011;35016;55.674;37.468;2023-04-25T03:23:45;12.88;;;7.15;;
49177;SDS011;35016;55.674;37.468;2023-04-25T03:26:12;11.40;;;6.68;;
49177;SDS011;35016;55.674;37.468;2023-04-25T03:28:39;14.00;;;7.32;;
49177;SDS011;35016;55.674;37.468;2023-04-25T03:31:06;12.20;;;6.50;;
49177;SDS011;35016;55.674;37.468;2023-04-25T03:33:33;12.23;;;7.80;;
49177;SDS011;35016;55.674;37.468;2023-04-25T03:36:01;14.43;;;6.18;;
49177;SDS011;35016;55.674;37.468;2023-04-25T03:38:28;12.68;;;7.60;;
49177;SDS011;35016;55.674;37.468;2023-04-25T03:40:56;11.85;;;6.50;;
49177;SDS011;35016;55.674;37.468;2023-04-25T03:43:32;13.45;;;6.38;;
49177;SDS011;35016;55.674;37.468;2023-04-25T03:46:04;12.30;;;7.97;;
49177;SDS011;35016;55.674;37.468;2023-04-25T03:48:31;12.63;;;7.70;;
49177;SDS011;35016;55.674;37.468;2023-04-25T03:50:59;14.38;;;7.32;;
49177;SDS011;35016;55.674;37.468;2023-04-25T03:53:26;13.20;;;7.50;;
49177;SDS011;35016;55.674;37.468;2023-04-25T03:56:12;12.27;;;7.38;;
49177;SDS011;35016;55.674;37.468;2023-04-25T03:58:40;14.73;;;9.30;;
49177;SDS011;35016;55.674;37.468;2023-04-25T04:01:07;10.63;;;7.28;;
49177;SDS011;35016;55.674;37.468;2023-04-25T04:03:36;15.85;;;8.25;;
49177;SDS011;35016;55.674;37.468;2023-04-25T04:06:05;12.57;;;7.32;;
49177;SDS011;35016;55.674;37.468;2023-04-25T04:08:37;10.65;;;7.78;;
49177;SDS011;35016;55.674;37.468;2023-04-25T04:11:04;12.65;;;8.88;;
49177;SDS011;35016;55.674;37.468;2023-04-25T04:13:32;11.80;;;7.45;;
49177;SDS011;35016;55.674;37.468;2023-04-25T04:16:00;13.50;;;8.18;;
49177;SDS011;35016;55.674;37.468;2023-04-25T04:18:28;13.38;;;8.30;;
49177;SDS011;35016;55.674;37.468;2023-04-25T04:20:56;14.45;;;8.68;;
49177;SDS011;35016;55.674;37.468;2023-04-25T04:23:27;13.88;;;9.27;;
49177;SDS011;35016;55.674;37.468;2023-04-25T04:25:56;16.63;;;9.40;;
49177;SDS011;35016;55.674;37.468;2023-04-25T04:28:26;12.85;;;8.18;;
49177;SDS011;35016;55.674;37.468;2023-04-25T04:31:16;13.35;;;8.93;;
49177;SDS011;35016;55.674;37.468;2023-04-25T04:33:47;18.02;;;9.73;;
49177;SDS011;35016;55.674;37.468;2023-04-25T04:36:15;12.80;;;8.05;;
49177;SDS011;35016;55.674;37.468;2023-04-25T04:38:43;14.02;;;8.95;;
49177;SDS011;35016;55.674;37.468;2023-04-25T04:41:18;14.07;;;8.25;;
49177;SDS011;35016;55.674;37.468;2023-04-25T04:44:05;17.17;;;8.38;;
49177;SDS011;35016;55.674;37.468;2023-04-25T04:46:53;12.85;;;9.10;;
49177;SDS011;35016;55.674;37.468;2023-04-25T04:49:52;13.10;;;9.20;;
49177;SDS011;35016;55.674;37.468;2023-04-25T04:52:30;11.35;;;8.50;;
49177;SDS011;35016;55.674;37.468;2023-04-25T04:55:23;14.27;;;9.18;;
49177;SDS011;35016;55.674;37.468;2023-04-25T04:58:01;14.77;;;9.90;;
49177;SDS011;35016;55.674;37.468;2023-04-25T05:00:38;12.32;;;7.53;;
49177;SDS011;35016;55.674;37.468;2023-04-25T05:03:23;14.68;;;8.52;;
49177;SDS011;35016;55.674;37.468;2023-04-25T05:06:03;14.98;;;8.10;;
49177;SDS011;35016;55.674;37.468;2023-04-25T05:08:39;12.43;;;7.85;;
49177;SDS011;35016;55.674;37.468;2023-04-25T05:11:12;15.75;;;8.27;;
49177;SDS011;35016;55.674;37.468;2023-04-25T05:14:15;13.35;;;8.77;;
49177;SDS011;35016;55.674;37.468;2023-04-25T05:16:43;12.85;;;7.70;;
49177;SDS011;35016;55.674;37.468;2023-04-25T05:19:29;18.13;;;7.00;;
49177;SDS011;35016;55.674;37.468;2023-04-25T05:22:14;10.30;;;6.65;;
49177;SDS011;35016;55.674;37.468;2023-04-25T05:25:08;14.13;;;7.75;;
49177;SDS011;35016;55.674;37.468;2023-04-25T05:27:58;13.38;;;6.57;;
49177;SDS011;35016;55.674;37.468;2023-04-25T05:30:57;12.30;;;7.28;;
49177;SDS011;35016;55.674;37.468;2023-04-25T05:33:30;12.48;;;6.72;;
49177;SDS011;35016;55.674;37.468;2023-04-25T05:35:58;12.65;;;7.30;;
49177;SDS011;35016;55.674;37.468;2023-04-25T05:38:25;13.50;;;9.50;;
49177;SDS011;35016;55.674;37.468;2023-04-25T05:41:16;12.55;;;6.50;;
49177;SDS011;35016;55.674;37.468;2023-04-25T05:44:06;13.45;;;6.47;;
49177;SDS011;35016;55.674;37.468;2023-04-25T05:46:42;12.15;;;6.82;;
49177;SDS011;35016;55.674;37.468;2023-04-25T05:49:24;13.65;;;6.72;;
49177;SDS011;35016;55.674;37.468;2023-04-25T05:52:18;11.05;;;6.10;;
49177;SDS011;35016;55.674;37.468;2023-04-25T05:55:07;9.60;;;5.10;;
49177;SDS011;35016;55.674;37.468;2023-04-25T05:57:36;13.27;;;5.68;;
49177;SDS011;35016;55.674;37.468;2023-04-25T06:00:04;13.15;;;6.80;;
49177;SDS011;35016;55.674;37.468;2023-04-25T06:02:43;11.25;;;6.53;;
49177;SDS011;35016;55.674;37.468;2023-04-25T06:05:12;14.23;;;6.00;;
49177;SDS011;35016;55.674;37.468;2023-04-25T06:07:40;13.15;;;6.13;;
49177;SDS011;35016;55.674;37.468;2023-04-25T06:10:07;15.82;;;5.07;;
49177;SDS011;35016;55.674;37.468;2023-04-25T06:12:35;14.00;;;6.70;;
49177;SDS011;35016;55.674;37.468;2023-04-25T06:15:03;9.20;;;5.15;;
49177;SDS011;35016;55.674;37.468;2023-04-25T06:17:49;15.48;;;6.70;;
49177;SDS011;35016;55.674;37.468;2023-04-25T06:20:16;12.35;;;5.82;;
49177;SDS011;35016;55.674;37.468;2023-04-25T06:22:43;11.52;;;5.88;;
49177;SDS011;35016;55.674;37.468;2023-04-25T06:25:11;11.18;;;6.45;;
49177;SDS011;35016;55.674;37.468;2023-04-25T06:27:38;11.40;;;5.22;;
49177;SDS011;35016;55.674;37.468;2023-04-25T06:30:07;10.80;;;4.65;;
49177;SDS011;35016;55.674;37.468;2023-04-25T06:32:34;10.05;;;4.85;;
49177;SDS011;35016;55.674;37.468;2023-04-25T06:35:04;10.52;;;5.30;;
49177;SDS011;35016;55.674;37.468;2023-04-25T06:37:32;11.10;;;5.75;;
49177;SDS011;35016;55.674;37.468;2023-04-25T06:40:00;10.38;;;5.55;;
49177;SDS011;35016;55.674;37.468;2023-04-25T06:42:29;9.18;;;5.55;;
49177;SDS011;35016;55.674;37.468;2023-04-25T06:44:57;10.60;;;4.95;;
49177;SDS011;35016;55.674;37.468;2023-04-25T06:47:28;9.60;;;4.93;;
49177;SDS011;35016;55.674;37.468;2023-04-25T06:49:58;9.48;;;4.85;;
49177;SDS011;35016;55.674;37.468;2023-04-25T06:52:25;9.25;;;5.07;;
49177;SDS011;35016;55.674;37.468;2023-04-25T06:54:53;10.15;;;5.15;;
49177;SDS011;35016;55.674;37.468;2023-04-25T06:57:38;12.25;;;4.57;;
49177;SDS011;35016;55.674;37.468;2023-04-25T07:00:28;9.52;;;4.75;;
49177;SDS011;35016;55.674;37.468;2023-04-25T07:02:57;13.80;;;5.82;;
49177;SDS011;35016;55.674;37.468;2023-04-25T07:05:25;10.63;;;4.00;;
49177;SDS011;35016;55.674;37.468;2023-04-25T07:07:52;9.70;;;4.93;;
49177;SDS011;35016;55.674;37.468;2023-04-25T07:10:19;12.15;;;5.05;;
49177;SDS011;35016;55.674;37.468;2023-04-25T07:12:48;10.75;;;4.60;;
49177;SDS011;35016;55.674;37.468;2023-04-25T07:15:15;9.93;;;5.03;;
49177;SDS011;35016;55.674;37.468;2023-04-25T07:17:47;9.85;;;5.25;;
49177;SDS011;35016;55.674;37.468;2023-04-25T07:20:18;11.70;;;5.47;;
49177;SDS011;35016;55.674;37.468;2023-04-25T07:22:45;10.55;;;4.70;;
49177;SDS011;35016;55.674;37.468;2023-04-25T07:25:12;9.82;;;4.75;;
49177;SDS011;35016;55.674;37.468;2023-04-25T07:27:42;9.48;;;4.22;;
49177;SDS011;35016;55.674;37.468;2023-04-25T07:30:17;9.23;;;4.65;;
49177;SDS011;35016;55.674;37.468;2023-04-25T07:32:44;11.25;;;5.78;;
49177;SDS011;35016;55.674;37.468;2023-04-25T07:35:12;10.68;;;5.10;;
49177;SDS011;35016;55.674;37.468;2023-04-25T07:37:40;10.35;;;4.93;;
49177;SDS011;35016;55.674;37.468;2023-04-25T07:40:15;12.38;;;5.22;;
49177;SDS011;35016;55.674;37.468;2023-04-25T07:42:50;13.23;;;5.00;;
49177;SDS011;35016;55.674;37.468;2023-04-25T07:45:25;11.88;;;5.63;;
49177;SDS011;35016;55.674;37.468;2023-04-25T07:47:53;12.38;;;5.60;;
49177;SDS011;35016;55.674;37.468;2023-04-25T07:50:20;12.93;;;5.90;;
49177;SDS011;35016;55.674;37.468;2023-04-25T07:52:48;9.30;;;5.00;;
49177;SDS011;35016;55.674;37.468;2023-04-25T07:55:30;10.57;;;4.75;;
49177;SDS011;35016;55.674;37.468;2023-04-25T07:58:06;10.57;;;5.70;;
49177;SDS011;35016;55.674;37.468;2023-04-25T08:00:36;11.30;;;6.13;;
49177;SDS011;35016;55.674;37.468;2023-04-25T08:03:25;12.27;;;5.93;;
49177;SDS011;35016;55.674;37.468;2023-04-25T08:05:53;12.45;;;5.00;;
49177;SDS011;35016;55.674;37.468;2023-04-25T08:08:23;13.10;;;5.55;;
49177;SDS011;35016;55.674;37.468;2023-04-25T08:10:50;10.10;;;5.15;;
49177;SDS011;35016;55.674;37.468;2023-04-25T08:13:17;10.07;;;4.78;;
49177;SDS011;35016;55.674;37.468;2023-04-25T08:15:45;8.35;;;4.45;;
49177;SDS011;35016;55.674;37.468;2023-04-25T08:18:12;10.02;;;4.68;;
49177;SDS011;35016;55.674;37.468;2023-04-25T08:20:42;11.73;;;5.20;;
49177;SDS011;35016;55.674;37.468;2023-04-25T08:23:10;8.25;;;4.25;;
49177;SDS011;35016;55.674;37.468;2023-04-25T08:25:45;10.10;;;4.53;;
49177;SDS011;35016;55.674;37.468;2023-04-25T08:28:15;13.57;;;5.10;;
49177;SDS011;35016;55.674;37.468;2023-04-25T08:30:43;13.70;;;5.40;;
49177;SDS011;35016;55.674;37.468;2023-04-25T08:33:13;9.50;;;4.78;;
49177;SDS011;35016;55.674;37.468;2023-04-25T08:36:15;9.77;;;4.18;;
49177;SDS011;35016;55.674;37.468;2023-04-25T08:39:01;8.50;;;4.00;;
49177;SDS011;35016;55.674;37.468;2023-04-25T08:41:28;8.57;;;3.92;;
49177;SDS011;35016;55.674;37.468;2023-04-25T08:43:56;11.10;;;4.15;;
49177;SDS011;35016;55.674;37.468;2023-04-25T08:46:26;10.77;;;4.15;;
49177;SDS011;35016;55.674;37.468;2023-04-25T08:49:16;8.80;;;4.45;;
49177;SDS011;35016;55.674;37.468;2023-04-25T08:51:44;11.02;;;4.97;;
49177;SDS011;35016;55.674;37.468;2023-04-25T08:54:21;11.80;;;4.65;;
49177;SDS011;35016;55.674;37.468;2023-04-25T08:57:03;11.07;;;4.10;;
49177;SDS011;35016;55.674;37.468;2023-04-25T08:59:31;11.57;;;4.60;;
49177;SDS011;35016;55.674;37.468;2023-04-25T09:02:00;11.63;;;5.00;;
49177;SDS011;35016;55.674;37.468;2023-04-25T09:04:30;10.82;;;4.68;;
49177;SDS011;35016;55.674;37.468;2023-04-25T09:06:58;11.00;;;4.65;;
49177;SDS011;35016;55.674;37.468;2023-04-25T09:09:25;9.98;;;5.10;;
49177;SDS011;35016;55.674;37.468;2023-04-25T09:11:53;9.70;;;4.55;;
49177;SDS011;35016;55.674;37.468;2023-04-25T09:14:23;10.77;;;4.78;;
49177;SDS011;35016;55.674;37.468;2023-04-25T09:17:17;8.90;;;4.03;;
49177;SDS011;35016;55.674;37.468;2023-04-25T09:19:50;11.57;;;5.03;;
49177;SDS011;35016;55.674;37.468;2023-04-25T09:22:22;9.13;;;4.43;;
49177;SDS011;35016;55.674;37.468;2023-04-25T09:24:49;9.15;;;4.03;;
49177;SDS011;35016;55.674;37.468;2023-04-25T09:27:20;8.07;;;3.40;;
49177;SDS011;35016;55.674;37.468;2023-04-25T09:30:00;10.55;;;4.18;;
49177;SDS011;35016;55.674;37.468;2023-04-25T09:32:41;9.40;;;4.07;;
49177;SDS011;35016;55.674;37.468;2023-04-25T09:35:09;8.15;;;3.50;;
49177;SDS011;35016;55.674;37.468;2023-04-25T09:37:39;10.77;;;4.30;;
49177;SDS011;35016;55.674;37.468;2023-04-25T09:40:42;10.25;;;3.72;;
49177;SDS011;35016;55.674;37.468;2023-04-25T09:43:21;10.20;;;4.00;;
49177;SDS011;35016;55.674;37.468;2023-04-25T09:45:50;13.27;;;5.30;;
49177;SDS011;35016;55.674;37.468;2023-04-25T09:48:22;10.40;;;4.40;;
49177;SDS011;35016;55.674;37.468;2023-04-25T09:53:30;9.52;;;3.88;;
49177;SDS011;35016;55.674;37.468;2023-04-25T09:56:21;11.75;;;3.63;;
49177;SDS011;35016;55.674;37.468;2023-04-25T09:58:49;10.13;;;3.17;;
49177;SDS011;35016;55.674;37.468;2023-04-25T10:01:20;8.35;;;3.38;;
49177;SDS011;35016;55.674;37.468;2023-04-25T10:04:05;7.32;;;2.95;;
49177;SDS011;35016;55.674;37.468;2023-04-25T10:06:44;8.02;;;3.28;;
49177;SDS011;35016;55.674;37.468;2023-04-25T10:09:14;8.40;;;3.10;;
49177;SDS011;35016;55.674;37.468;2023-04-25T10:11:42;8.63;;;3.15;;
49177;SDS011;35016;55.674;37.468;2023-04-25T10:14:10;12.68;;;3.47;;
49177;SDS011;35016;55.674;37.468;2023-04-25T10:16:39;8.32;;;3.50;;
49177;SDS011;35016;55.674;37.468;2023-04-25T10:19:09;8.63;;;3.85;;
49177;SDS011;35016;55.674;37.468;2023-04-25T10:21:40;10.25;;;3.45;;
49177;SDS011;35016;55.674;37.468;2023-04-25T10:24:15;7.82;;;3.15;;
49177;SDS011;35016;55.674;37.468;2023-04-25T10:26:42;8.90;;;3.65;;
49177;SDS011;35016;55.674;37.468;2023-04-25T10:29:09;8.88;;;3.60;;
49177;SDS011;35016;55.674;37.468;2023-04-25T10:31:44;7.78;;;3.25;;
49177;SDS011;35016;55.674;37.468;2023-04-25T10:34:13;8.07;;;3.83;;
49177;SDS011;35016;55.674;37.468;2023-04-25T10:36:40;9.35;;;5.05;;
49177;SDS011;35016;55.674;37.468;2023-04-25T10:39:07;8.40;;;4.57;;
49177;SDS011;35016;55.674;37.468;2023-04-25T10:41:52;8.70;;;3.95;;
49177;SDS011;35016;55.674;37.468;2023-04-25T10:44:21;7.65;;;3.72;;
49177;SDS011;35016;55.674;37.468;2023-04-25T10:46:48;9.23;;;4.05;;
49177;SDS011;35016;55.674;37.468;2023-04-25T10:49:34;8.02;;;3.92;;
49177;SDS011;35016;55.674;37.468;2023-04-25T10:52:12;9.50;;;3.70;;
49177;SDS011;35016;55.674;37.468;2023-04-25T10:54:51;7.05;;;3.08;;
49177;SDS011;35016;55.674;37.468;2023-04-25T10:57:41;7.78;;;3.50;;
49177;SDS011;35016;55.674;37.468;2023-04-25T11:00:11;9.13;;;3.55;;
49177;SDS011;35016;55.674;37.468;2023-04-25T11:02:42;9.75;;;3.40;;
49177;SDS011;35016;55.674;37.468;2023-04-25T11:05:22;7.63;;;2.65;;
49177;SDS011;35016;55.674;37.468;2023-04-25T11:08:05;7.25;;;2.67;;
49177;SDS011;35016;55.674;37.468;2023-04-25T11:10:40;9.55;;;3.17;;
49177;SDS011;35016;55.674;37.468;2023-04-25T11:13:07;7.72;;;2.97;;
49177;SDS011;35016;55.674;37.468;2023-04-25T11:15:35;10.75;;;5.03;;
49177;SDS011;35016;55.674;37.468;2023-04-25T11:18:02;8.45;;;3.38;;
49177;SDS011;35016;55.674;37.468;2023-04-25T11:20:29;10.32;;;2.67;;
49177;SDS011;35016;55.674;37.468;2023-04-25T11:22:59;12.63;;;3.83;;
49177;SDS011;35016;55.674;37.468;2023-04-25T11:25:27;8.50;;;2.78;;
49177;SDS011;35016;55.674;37.468;2023-04-25T11:27:55;8.35;;;3.60;;
49177;SDS011;35016;55.674;37.468;2023-04-25T11:30:24;7.78;;;3.30;;
49177;SDS011;35016;55.674;37.468;2023-04-25T11:32:52;7.90;;;3.05;;
49177;SDS011;35016;55.674;37.468;2023-04-25T11:35:20;8.40;;;3.58;;
49177;SDS011;35016;55.674;37.468;2023-04-25T11:37:50;8.80;;;2.88;;
49177;SDS011;35016;55.674;37.468;2023-04-25T11:40:17;7.72;;;2.78;;
49177;SDS011;35016;55.674;37.468;2023-04-25T11:42:45;7.80;;;2.58;;
49177;SDS011;35016;55.674;37.468;2023-04-25T11:45:13;8.32;;;3.17;;
49177;SDS011;35016;55.674;37.468;2023-04-25T11:47:41;6.88;;;2.80;;
49177;SDS011;35016;55.674;37.468;2023-04-25T11:50:08;8.25;;;2.78;;
49177;SDS011;35016;55.674;37.468;2023-04-25T11:52:41;9.93;;;3.83;;
49177;SDS011;35016;55.674;37.468;2023-04-25T11:55:13;7.10;;;2.30;;
49177;SDS011;35016;55.674;37.468;2023-04-25T11:57:42;9.35;;;2.95;;
49177;SDS011;35016;55.674;37.468;2023-04-25T12:02:45;6.88;;;2.30;;
49177;SDS011;35016;55.674;37.468;2023-04-25T12:05:26;7.07;;;2.58;;
49177;SDS011;35016;55.674;37.468;2023-04-25T12:08:17;8.32;;;2.63;;
49177;SDS011;35016;55.674;37.468;2023-04-25T12:10:45;8.98;;;2.92;;
49177;SDS011;35016;55.674;37.468;2023-04-25T12:13:20;7.95;;;3.33;;
49177;SDS011;35016;55.674;37.468;2023-04-25T12:15:51;7.00;;;2.50;;
49177;SDS011;35016;55.674;37.468;2023-04-25T12:18:22;7.00;;;2.25;;
49177;SDS011;35016;55.674;37.468;2023-04-25T12:20:52;12.95;;;2.90;;
49177;SDS011;35016;55.674;37.468;2023-04-25T12:23:26;6.93;;;2.30;;
49177;SDS011;35016;55.674;37.468;2023-04-25T12:25:55;7.28;;;2.67;;
49177;SDS011;35016;55.674;37.468;2023-04-25T12:28:23;7.35;;;2.47;;
49177;SDS011;35016;55.674;37.468;2023-04-25T12:33:37;8.10;;;2.15;;
49177;SDS011;35016;55.674;37.468;2023-04-25T12:36:10;7.68;;;2.40;;
49177;SDS011;35016;55.674;37.468;2023-04-25T12:38:41;6.57;;;2.30;;
49177;SDS011;35016;55.674;37.468;2023-04-25T12:41:09;5.70;;;2.25;;
49177;SDS011;35016;55.674;37.468;2023-04-25T12:43:36;12.60;;;3.65;;
49177;SDS011;35016;55.674;37.468;2023-04-25T12:46:03;6.80;;;2.53;;
49177;SDS011;35016;55.674;37.468;2023-04-25T12:48:30;8.05;;;2.80;;
49177;SDS011;35016;55.674;37.468;2023-04-25T12:50:57;7.55;;;2.90;;
49177;SDS011;35016;55.674;37.468;2023-04-25T12:53:25;8.32;;;2.90;;
49177;SDS011;35016;55.674;37.468;2023-04-25T12:55:52;8.95;;;2.42;;
49177;SDS011;35016;55.674;37.468;2023-04-25T12:58:24;7.65;;;2.92;;
49177;SDS011;35016;55.674;37.468;2023-04-25T13:00:52;7.53;;;2.45;;
49177;SDS011;35016;55.674;37.468;2023-04-25T13:03:21;8.48;;;2.90;;
49177;SDS011;35016;55.674;37.468;2023-04-25T13:05:49;7.90;;;2.75;;
49177;SDS011;35016;55.674;37.468;2023-04-25T13:08:19;7.55;;;2.63;;
49177;SDS011;35016;55.674;37.468;2023-04-25T13:10:49;9.43;;;3.20;;
49177;SDS011;35016;55.674;37.468;2023-04-25T13:13:16;8.95;;;2.92;;
49177;SDS011;35016;55.674;37.468;2023-04-25T13:15:43;7.60;;;2.97;;
49177;SDS011;35016;55.674;37.468;2023-04-25T13:18:10;7.63;;;2.90;;
49177;SDS011;35016;55.674;37.468;2023-04-25T13:20:37;8.90;;;3.05;;
49177;SDS011;35016;55.674;37.468;2023-04-25T13:23:04;8.50;;;3.55;;
49177;SDS011;35016;55.674;37.468;2023-04-25T13:25:31;19.13;;;3.97;;
49177;SDS011;35016;55.674;37.468;2023-04-25T13:27:58;8.25;;;3.15;;
49177;SDS011;35016;55.674;37.468;2023-04-25T13:30:25;9.15;;;3.85;;
49177;SDS011;35016;55.674;37.468;2023-04-25T13:32:53;8.60;;;3.30;;
49177;SDS011;35016;55.674;37.468;2023-04-25T13:35:22;9.15;;;3.60;;
49177;SDS011;35016;55.674;37.468;2023-04-25T13:37:49;8.45;;;2.75;;
49177;SDS011;35016;55.674;37.468;2023-04-25T13:40:17;7.78;;;3.88;;
49177;SDS011;35016;55.674;37.468;2023-04-25T13:42:45;9.38;;;3.35;;
49177;SDS011;35016;55.674;37.468;2023-04-25T13:45:12;9.10;;;3.67;;
49177;SDS011;35016;55.674;37.468;2023-04-25T13:47:39;8.75;;;3.35;;
49177;SDS011;35016;55.674;37.468;2023-04-25T13:50:17;8.45;;;2.88;;
49177;SDS011;35016;55.674;37.468;2023-04-25T13:52:44;12.15;;;4.03;;
49177;SDS011;35016;55.674;37.468;2023-04-25T13:55:11;10.43;;;3.80;;
49177;SDS011;35016;55.674;37.468;2023-04-25T13:57:39;9.75;;;2.85;;
49177;SDS011;35016;55.674;37.468;2023-04-25T14:00:07;11.15;;;3.42;;
49177;SDS011;35016;55.674;37.468;2023-04-25T14:02:35;8.05;;;3.85;;
49177;SDS011;35016;55.674;37.468;2023-04-25T14:05:03;6.90;;;3.28;;
49177;SDS011;35016;55.674;37.468;2023-04-25T14:07:31;11.38;;;4.70;;
49177;SDS011;35016;55.674;37.468;2023-04-25T14:10:00;8.57;;;3.67;;
49177;SDS011;35016;55.674;37.468;2023-04-25T14:12:28;9.45;;;3.78;;
49177;SDS011;35016;55.674;37.468;2023-04-25T14:14:55;9.73;;;3.63;;
49177;SDS011;35016;55.674;37.468;2023-04-25T14:17:23;8.45;;;3.28;;
49177;SDS011;35016;55.674;37.468;2023-04-25T14:19:50;11.50;;;3.33;;
49177;SDS011;35016;55.674;37.468;2023-04-25T14:22:17;9.18;;;3.70;;
49177;SDS011;35016;55.674;37.468;2023-04-25T14:24:44;12.52;;;3.13;;
49177;SDS011;35016;55.674;37.468;2023-04-25T14:27:11;9.25;;;3.75;;
49177;SDS011;35016;55.674;37.468;2023-04-25T14:29:38;7.95;;;3.83;;
49177;SDS011;35016;55.674;37.468;2023-04-25T14:32:05;9.13;;;3.53;;
49177;SDS011;35016;55.674;37.468;2023-04-25T14:34:33;8.65;;;3.80;;
49177;SDS011;35016;55.674;37.468;2023-04-25T14:37:00;8.85;;;3.35;;
49177;SDS011;35016;55.674;37.468;2023-04-25T14:39:27;14.75;;;9.40;;
49177;SDS011;35016;55.674;37.468;2023-04-25T14:41:54;11.27;;;6.47;;
49177;SDS011;35016;55.674;37.468;2023-04-25T14:44:21;8.13;;;2.85;;
49177;SDS011;35016;55.674;37.468;2023-04-25T14:46:48;10.80;;;4.60;;
49177;SDS011;35016;55.674;37.468;2023-04-25T14:49:18;7.45;;;3.40;;
49177;SDS011;35016;55.674;37.468;2023-04-25T14:51:45;8.02;;;2.85;;
49177;SDS011;35016;55.674;37.468;2023-04-25T14:54:12;7.45;;;2.72;;
49177;SDS011;35016;55.674;37.468;2023-04-25T14:56:39;9.80;;;3.40;;